Time;durP1;ratioP1;P1;durP2;ratioP2;P2;SDS_P1;SDS_P2;PMS_P1;PMS_P2;Temp;Humidity;BMP_temperature;BMP_pressure;BME280_temperature;BME280_humidity;BME280_pressure;Samples;Min_cycle;Max_cycle;Signal;HPM_P1;HPM_P2
2024/02/10 00:01:24;;;;;;;9.10;2.88;;;18.10;75.40;;;;;;5065789;28;20093;-67
2024/02/10 00:03:50;;;;;;;14.27;2.97;;;18.20;76.30;;;;;;5066824;28;20171;-68
2024/02/10 00:06:17;;;;;;;6.18;2.83;;;18.20;75.20;;;;;;5066906;28;20080;-68
2024/02/10 00:08:44;;;;;;;7.15;2.25;;;18.10;75.40;;;;;;5067625;28;20076;-68
2024/02/10 00:11:13;;;;;;;7.00;1.83;;;18.00;76.70;;;;;;5069891;28;20102;-69
2024/02/10 00:13:41;;;;;;;6.25;1.90;;;17.80;77.80;;;;;;5066118;28;20123;-67
2024/02/10 00:16:08;;;;;;;7.22;1.73;;;17.70;78.40;;;;;;5064137;28;20156;-66
2024/02/10 00:18:36;;;;;;;5.70;1.95;;;17.60;78.60;;;;;;5066818;28;20131;-67
2024/02/10 00:21:02;;;;;;;9.18;2.67;;;17.60;78.80;;;;;;5065804;28;20553;-64
2024/02/10 00:23:29;;;;;;;4.70;1.50;;;17.60;79.30;;;;;;5067469;28;20164;-67
2024/02/10 00:25:56;;;;;;;9.05;1.63;;;17.50;79.60;;;;;;5067011;28;20073;-67
2024/02/10 00:28:24;;;;;;;7.00;1.40;;;17.50;80.10;;;;;;5065845;28;20126;-67
2024/02/10 00:30:54;;;;;;;4.80;1.10;;;17.50;80.70;;;;;;5063423;28;20081;-64
2024/02/10 00:33:21;;;;;;;2.92;1.10;;;17.40;82.70;;;;;;5066369;28;20108;-65
2024/02/10 00:35:47;;;;;;;10.27;4.20;;;17.30;83.60;;;;;;5068562;28;20555;-66
2024/02/10 00:38:15;;;;;;;11.95;4.93;;;17.40;85.00;;;;;;5066206;28;20108;-65
2024/02/10 00:40:41;;;;;;;4.38;1.02;;;17.20;88.40;;;;;;5062018;28;20128;-67
2024/02/10 00:43:12;;;;;;;10.35;1.17;;;17.00;90.50;;;;;;5065948;28;20095;-66
2024/02/10 00:45:40;;;;;;;3.92;1.58;;;16.90;91.20;;;;;;5061679;28;20165;-65
2024/02/10 00:48:07;;;;;;;3.95;1.70;;;16.80;92.50;;;;;;5065504;28;21073;-66
2024/02/10 00:50:34;;;;;;;4.25;1.55;;;16.80;93.60;;;;;;5061701;28;20200;-66
2024/02/10 00:53:02;;;;;;;12.50;8.38;;;16.60;93.90;;;;;;5063345;28;20069;-66
2024/02/10 00:55:30;;;;;;;7.05;2.25;;;16.40;93.60;;;;;;5066537;28;20563;-66
2024/02/10 00:58:06;;;;;;;9.77;4.28;;;16.30;94.20;;;;;;5064591;28;20110;-62
2024/02/10 01:00:34;;;;;;;10.10;2.40;;;16.20;94.60;;;;;;5067317;28;20073;-65
2024/02/10 01:03:02;;;;;;;8.63;2.20;;;16.30;95.70;;;;;;5065902;28;20076;-64
2024/02/10 01:05:29;;;;;;;7.22;2.15;;;16.20;95.50;;;;;;5065846;28;20073;-64
2024/02/10 01:07:56;;;;;;;5.60;2.20;;;16.10;94.20;;;;;;5069957;28;20405;-67
2024/02/10 01:10:23;;;;;;;7.32;2.45;;;16.10;94.30;;;;;;5070936;28;20556;-67
2024/02/10 01:12:49;;;;;;;12.50;3.80;;;16.10;94.20;;;;;;5064502;28;20084;-65
2024/02/10 01:15:16;;;;;;;11.57;2.92;;;16.10;94.80;;;;;;5066946;28;20096;-67
2024/02/10 01:17:46;;;;;;;10.27;3.63;;;16.00;94.50;;;;;;5064760;28;20099;-66
2024/02/10 01:20:16;;;;;;;7.45;2.80;;;16.00;94.40;;;;;;5066652;28;20074;-68
2024/02/10 01:22:45;;;;;;;5.40;1.70;;;16.10;94.90;;;;;;5065227;28;20199;-66
2024/02/10 01:25:11;;;;;;;10.75;3.03;;;16.10;94.60;;;;;;5067145;28;20084;-62
2024/02/10 01:27:38;;;;;;;7.20;2.60;;;16.00;94.80;;;;;;5063745;28;20096;-66
2024/02/10 01:30:07;;;;;;;6.22;2.92;;;16.00;95.30;;;;;;5066706;28;20204;-65
2024/02/10 01:32:33;;;;;;;7.28;2.40;;;16.00;95.20;;;;;;5065236;28;20079;-63
2024/02/10 01:35:03;;;;;;;6.15;2.80;;;15.90;95.30;;;;;;5065790;28;20572;-66
2024/02/10 01:37:31;;;;;;;8.88;2.22;;;15.90;96.00;;;;;;5065109;28;20077;-68
2024/02/10 01:39:57;;;;;;;10.88;1.98;;;15.80;97.30;;;;;;5063789;28;20107;-67
2024/02/10 01:42:37;;;;;;;5.07;1.60;;;15.50;99.90;;;;;;5064105;28;20077;-67
2024/02/10 01:45:13;;;;;;;6.60;2.17;;;15.20;99.90;;;;;;5064635;28;20126;-70
2024/02/10 01:47:44;;;;;;;5.28;1.50;;;14.90;99.90;;;;;;5064115;28;20122;-68
2024/02/10 01:50:11;;;;;;;4.57;1.48;;;14.70;99.90;;;;;;5064135;28;20132;-70
2024/02/10 01:52:39;;;;;;;5.25;1.80;;;14.60;99.90;;;;;;5062524;28;20065;-68
2024/02/10 01:55:09;;;;;;;4.50;1.65;;;14.50;99.90;;;;;;5062119;28;20104;-67
2024/02/10 01:57:36;;;;;;;3.33;1.30;;;14.40;99.90;;;;;;5065191;28;20549;-72
2024/02/10 02:00:05;;;;;;;3.38;1.58;;;14.20;99.90;;;;;;5062456;28;20069;-67
2024/02/10 02:02:32;;;;;;;3.28;1.58;;;14.20;99.90;;;;;;5064898;28;20073;-68
2024/02/10 02:05:03;;;;;;;3.08;1.50;;;14.10;99.90;;;;;;5067602;28;20073;-70
2024/02/10 02:07:33;;;;;;;4.72;1.98;;;14.10;99.90;;;;;;5063983;28;20088;-68
2024/02/10 02:10:03;;;;;;;4.60;1.40;;;14.10;99.90;;;;;;5069260;28;20225;-67
2024/02/10 02:12:31;;;;;;;7.65;2.03;;;14.10;99.90;;;;;;5069109;28;20085;-68
2024/02/10 02:14:58;;;;;;;3.95;1.55;;;14.00;99.90;;;;;;5068149;28;20101;-71
2024/02/10 02:17:25;;;;;;;3.60;1.35;;;14.10;99.90;;;;;;5066122;28;20080;-69
2024/02/10 02:19:52;;;;;;;3.78;1.38;;;14.10;99.90;;;;;;5069070;28;20073;-70
2024/02/10 02:22:18;;;;;;;4.22;1.30;;;14.00;99.90;;;;;;5069981;28;20077;-68
2024/02/10 02:24:46;;;;;;;4.80;1.10;;;14.00;99.90;;;;;;5066081;28;20453;-66
2024/02/10 02:27:13;;;;;;;3.92;2.85;;;14.10;99.90;;;;;;5068428;28;20088;-69
2024/02/10 02:29:39;;;;;;;2.33;1.38;;;14.10;99.90;;;;;;5069530;28;20088;-64
2024/02/10 02:32:08;;;;;;;5.00;2.38;;;14.10;99.90;;;;;;5064778;28;20452;-71
2024/02/10 02:34:35;;;;;;;6.35;2.15;;;14.10;99.90;;;;;;5069732;28;20097;-71
2024/02/10 02:37:02;;;;;;;6.10;2.40;;;14.20;99.90;;;;;;5076103;28;20107;-68
2024/02/10 02:39:30;;;;;;;4.47;2.28;;;14.30;99.90;;;;;;5067498;28;20084;-65
2024/02/10 02:41:59;;;;;;;5.30;1.98;;;14.30;99.90;;;;;;5068502;28;20077;-67
2024/02/10 02:44:27;;;;;;;4.28;2.15;;;14.20;99.90;;;;;;5066238;28;20119;-66
2024/02/10 02:46:54;;;;;;;3.17;1.80;;;14.20;99.90;;;;;;5071733;28;20073;-66
2024/02/10 02:49:23;;;;;;;6.38;1.73;;;14.20;99.90;;;;;;5068594;28;20087;-68
2024/02/10 02:51:51;;;;;;;3.65;1.70;;;14.20;99.90;;;;;;5065758;28;20136;-66
2024/02/10 02:54:20;;;;;;;3.97;1.75;;;14.20;99.90;;;;;;5067387;28;20469;-66
2024/02/10 02:56:51;;;;;;;3.95;1.98;;;14.20;99.90;;;;;;5062014;28;20269;-67
2024/02/10 02:59:19;;;;;;;6.32;2.30;;;14.20;99.90;;;;;;5067503;28;20131;-64
2024/02/10 03:01:51;;;;;;;7.28;2.17;;;14.20;99.90;;;;;;5065557;28;20096;-66
2024/02/10 03:04:20;;;;;;;2.53;1.58;;;14.20;99.90;;;;;;5067519;28;20092;-65
2024/02/10 03:06:50;;;;;;;6.38;1.67;;;14.20;99.90;;;;;;5066562;28;20156;-68
2024/02/10 03:09:16;;;;;;;2.17;1.20;;;14.10;99.90;;;;;;5067648;28;20073;-63
2024/02/10 03:11:43;;;;;;;2.10;1.48;;;14.10;99.90;;;;;;5067670;28;20089;-65
2024/02/10 03:14:10;;;;;;;4.90;1.90;;;14.10;99.90;;;;;;5068602;28;20104;-66
2024/02/10 03:16:38;;;;;;;3.50;1.70;;;14.10;99.90;;;;;;5068455;28;20157;-65
2024/02/10 03:19:05;;;;;;;6.57;2.03;;;14.10;99.90;;;;;;5077773;28;20146;-71
2024/02/10 03:21:35;;;;;;;5.45;2.20;;;14.10;99.90;;;;;;5071426;28;20152;-64
2024/02/10 03:24:03;;;;;;;5.85;2.10;;;14.20;99.90;;;;;;5068906;28;20160;-68
2024/02/10 03:26:30;;;;;;;5.78;2.63;;;14.20;99.90;;;;;;5069563;28;20081;-68
2024/02/10 03:28:58;;;;;;;4.30;2.10;;;14.20;99.90;;;;;;5066266;28;20164;-68
2024/02/10 03:31:24;;;;;;;4.07;2.17;;;14.20;99.90;;;;;;5066971;28;20077;-69
2024/02/10 03:33:51;;;;;;;4.13;1.90;;;14.20;99.90;;;;;;5065981;28;20129;-68
2024/02/10 03:36:17;;;;;;;3.33;1.83;;;14.20;99.90;;;;;;5067547;28;20073;-70
2024/02/10 03:38:44;;;;;;;5.97;1.80;;;14.20;99.90;;;;;;5065770;28;20531;-68
2024/02/10 03:41:13;;;;;;;6.53;2.40;;;14.20;99.90;;;;;;5071444;28;20073;-71
2024/02/10 03:43:40;;;;;;;8.90;2.60;;;14.20;99.90;;;;;;5071500;28;20073;-65
2024/02/10 03:46:06;;;;;;;4.55;2.28;;;14.20;99.90;;;;;;5069919;28;20134;-68
2024/02/10 03:48:33;;;;;;;6.85;2.70;;;14.20;99.90;;;;;;5068775;28;20096;-68
2024/02/10 03:50:59;;;;;;;9.25;3.45;;;14.20;99.90;;;;;;5066136;28;20604;-69
2024/02/10 03:53:26;;;;;;;11.85;3.70;;;14.10;99.90;;;;;;5060919;28;20069;-68
2024/02/10 03:55:56;;;;;;;6.57;3.40;;;14.10;99.90;;;;;;5072056;28;20127;-62
2024/02/10 03:58:24;;;;;;;12.07;4.22;;;14.10;99.90;;;;;;5067274;28;20077;-66
2024/02/10 04:00:51;;;;;;;8.98;3.95;;;14.00;99.90;;;;;;5064897;28;20092;-67
2024/02/10 04:03:19;;;;;;;10.40;4.00;;;14.00;99.90;;;;;;5065094;28;20131;-70
2024/02/10 04:05:46;;;;;;;4.65;2.97;;;14.00;99.90;;;;;;5066002;28;20077;-70
2024/02/10 04:08:14;;;;;;;6.05;3.17;;;14.00;99.90;;;;;;5070557;28;20102;-71
2024/02/10 04:10:41;;;;;;;8.18;2.80;;;14.00;99.90;;;;;;5068623;28;20105;-64
2024/02/10 04:13:08;;;;;;;8.95;2.35;;;13.90;99.90;;;;;;5067868;28;20073;-70
2024/02/10 04:15:35;;;;;;;5.90;2.20;;;14.00;99.90;;;;;;5067028;28;20097;-69
2024/02/10 04:18:02;;;;;;;3.08;2.05;;;13.90;99.90;;;;;;5064881;28;20097;-69
2024/02/10 04:20:29;;;;;;;7.65;2.20;;;14.00;99.90;;;;;;5061962;28;20092;-69
2024/02/10 04:22:55;;;;;;;4.80;1.83;;;13.90;99.90;;;;;;5062310;28;20138;-69
2024/02/10 04:25:22;;;;;;;5.20;2.33;;;13.90;99.90;;;;;;5062327;28;20065;-69
2024/02/10 04:27:48;;;;;;;5.15;2.80;;;13.90;99.90;;;;;;5065988;28;20092;-67
2024/02/10 04:30:15;;;;;;;13.73;3.10;;;13.90;99.90;;;;;;5067076;28;20155;-68
2024/02/10 04:32:48;;;;;;;8.90;2.70;;;13.90;99.90;;;;;;5063124;28;20072;-65
2024/02/10 04:35:15;;;;;;;10.50;2.72;;;14.00;99.90;;;;;;5056801;28;20100;-70
2024/02/10 04:37:51;;;;;;;11.50;4.65;;;14.00;99.90;;;;;;5057947;28;20091;-71
2024/02/10 04:40:18;;;;;;;9.75;4.78;;;13.90;99.90;;;;;;5065420;28;20150;-67
2024/02/10 04:42:45;;;;;;;5.38;3.92;;;13.90;99.90;;;;;;5061745;28;20077;-65
2024/02/10 04:45:31;;;;;;;6.57;1.70;;;13.90;99.90;;;;;;5061433;28;20156;-70
2024/02/10 04:48:00;;;;;;;7.03;2.00;;;13.80;99.50;;;;;;5058113;28;20069;-70
2024/02/10 04:50:28;;;;;;;5.85;2.10;;;13.80;99.50;;;;;;5047548;28;20113;-68
2024/02/10 04:52:58;;;;;;;9.25;3.58;;;13.80;99.70;;;;;;5058139;28;20085;-69
2024/02/10 04:55:25;;;;;;;8.23;3.13;;;13.70;99.70;;;;;;5058359;28;20507;-69
2024/02/10 04:57:52;;;;;;;13.18;3.75;;;13.70;99.70;;;;;;5061938;28;20101;-70
2024/02/10 05:00:20;;;;;;;10.75;3.67;;;13.70;99.90;;;;;;5060053;28;20073;-70
2024/02/10 05:02:53;;;;;;;9.00;3.00;;;13.60;99.90;;;;;;5060129;28;20080;-69
2024/02/10 05:05:20;;;;;;;6.63;2.47;;;13.60;99.90;;;;;;5060430;28;20073;-69
2024/02/10 05:07:55;;;;;;;5.47;2.58;;;13.60;99.90;;;;;;5059755;28;20081;-71
2024/02/10 05:10:23;;;;;;;6.10;3.10;;;13.60;99.90;;;;;;5059021;28;20073;-70
2024/02/10 05:12:50;;;;;;;5.93;2.50;;;13.50;99.90;;;;;;5060517;28;20077;-70
2024/02/10 05:15:21;;;;;;;7.28;2.50;;;13.50;99.90;;;;;;5060593;28;20109;-64
2024/02/10 05:17:49;;;;;;;5.22;2.33;;;13.50;99.90;;;;;;5062714;28;20192;-70
2024/02/10 05:20:18;;;;;;;6.68;2.38;;;13.40;99.90;;;;;;5060085;28;20075;-70
2024/02/10 05:22:49;;;;;;;8.05;2.40;;;13.40;99.90;;;;;;5061488;28;20077;-68
2024/02/10 05:25:20;;;;;;;7.57;2.33;;;13.40;99.90;;;;;;5061799;28;20073;-70
2024/02/10 05:27:48;;;;;;;10.40;3.25;;;13.30;99.90;;;;;;5058266;28;20088;-68
2024/02/10 05:30:24;;;;;;;8.15;2.58;;;13.30;99.90;;;;;;5061650;28;20089;-72
2024/02/10 05:33:05;;;;;;;5.50;2.67;;;13.20;99.90;;;;;;5062808;28;20072;-70
2024/02/10 05:35:32;;;;;;;8.27;2.80;;;13.30;99.90;;;;;;5061246;28;20568;-71
2024/02/10 05:38:02;;;;;;;10.88;3.88;;;13.30;99.90;;;;;;5059673;28;20080;-70
2024/02/10 05:40:32;;;;;;;8.90;2.90;;;13.20;99.90;;;;;;5059655;28;20069;-71
2024/02/10 05:43:04;;;;;;;13.73;3.22;;;13.10;99.90;;;;;;5059903;28;20076;-70
2024/02/10 05:45:33;;;;;;;6.00;2.60;;;13.10;99.90;;;;;;5058476;28;20123;-69
2024/02/10 05:47:59;;;;;;;8.88;3.15;;;13.00;99.90;;;;;;5059348;28;20274;-68
2024/02/10 05:50:27;;;;;;;7.38;2.92;;;13.10;99.90;;;;;;5062123;28;20104;-70
2024/02/10 05:52:57;;;;;;;7.38;2.70;;;13.00;99.90;;;;;;5058896;28;20474;-71
2024/02/10 05:55:26;;;;;;;9.32;3.20;;;13.00;99.90;;;;;;5061153;28;20196;-66
2024/02/10 05:58:06;;;;;;;7.05;3.08;;;13.00;99.90;;;;;;5060282;28;20533;-70
2024/02/10 06:00:33;;;;;;;8.40;3.10;;;13.00;99.90;;;;;;5058925;28;20077;-70
2024/02/10 06:03:04;;;;;;;5.78;3.05;;;13.00;99.90;;;;;;5061679;28;20087;-71
2024/02/10 06:05:30;;;;;;;7.72;3.95;;;13.00;99.90;;;;;;5058063;28;20099;-70
2024/02/10 06:07:57;;;;;;;8.50;4.25;;;12.90;99.90;;;;;;5060727;28;20152;-66
2024/02/10 06:10:23;;;;;;;12.20;4.80;;;12.90;99.90;;;;;;5060793;28;20073;-66
2024/02/10 06:12:52;;;;;;;11.05;4.70;;;12.90;99.90;;;;;;5060669;28;20099;-69
2024/02/10 06:15:20;;;;;;;14.60;5.60;;;12.90;99.90;;;;;;5057442;28;20235;-72
2024/02/10 06:17:57;;;;;;;9.93;4.90;;;12.90;99.90;;;;;;5060856;28;20081;-69
2024/02/10 06:20:24;;;;;;;12.75;4.15;;;12.90;99.90;;;;;;5060322;28;20168;-69
2024/02/10 06:22:52;;;;;;;7.82;3.72;;;13.00;99.90;;;;;;5062836;28;20501;-69
2024/02/10 06:25:24;;;;;;;13.18;5.18;;;13.00;99.90;;;;;;5060852;28;20073;-64
2024/02/10 06:28:01;;;;;;;11.65;5.28;;;13.00;99.90;;;;;;5057189;28;20081;-64
2024/02/10 06:30:32;;;;;;;7.72;2.90;;;13.00;99.90;;;;;;5061122;28;20080;-66
2024/02/10 06:32:59;;;;;;;3.65;2.08;;;13.00;99.90;;;;;;5056871;28;20210;-69
2024/02/10 06:35:26;;;;;;;6.85;2.70;;;13.00;99.90;;;;;;5058879;28;20109;-70
2024/02/10 06:37:54;;;;;;;29.25;18.70;;;12.90;99.90;;;;;;5055639;28;20448;-67
2024/02/10 06:40:20;;;;;;;34.63;19.83;;;12.90;99.90;;;;;;5058696;28;20081;-64
2024/02/10 06:42:51;;;;;;;29.58;19.20;;;12.90;99.90;;;;;;5057139;28;20081;-67
2024/02/10 06:45:21;;;;;;;6.57;2.42;;;13.00;99.90;;;;;;5055752;28;20077;-67
2024/02/10 06:47:51;;;;;;;6.40;4.05;;;13.00;99.90;;;;;;5057747;28;20081;-72
2024/02/10 06:50:27;;;;;;;8.55;4.15;;;13.10;99.90;;;;;;5057933;28;20601;-69
2024/02/10 06:52:54;;;;;;;11.68;6.30;;;13.10;99.90;;;;;;5060016;28;20100;-69
2024/02/10 06:55:23;;;;;;;6.53;2.83;;;13.20;99.90;;;;;;5060795;28;20133;-70
2024/02/10 06:57:52;;;;;;;8.05;3.00;;;13.20;99.90;;;;;;5065769;28;20081;-71
2024/02/10 07:00:19;;;;;;;3.70;2.40;;;13.30;99.90;;;;;;5062736;28;20131;-67
2024/02/10 07:02:46;;;;;;;5.50;3.20;;;13.30;99.90;;;;;;5061412;28;20087;-70
2024/02/10 07:05:15;;;;;;;9.65;3.90;;;13.20;99.90;;;;;;5059677;28;20448;-65
2024/02/10 07:07:49;;;;;;;7.32;3.72;;;13.20;99.90;;;;;;5062202;28;20100;-70
2024/02/10 07:10:17;;;;;;;7.78;4.10;;;13.20;99.90;;;;;;5061481;28;20523;-70
2024/02/10 07:12:46;;;;;;;7.35;3.28;;;13.30;99.90;;;;;;5061186;28;20077;-69
2024/02/10 07:15:18;;;;;;;11.75;4.63;;;13.30;99.90;;;;;;5063826;28;20155;-70
2024/02/10 07:17:49;;;;;;;8.85;3.28;;;13.20;99.90;;;;;;5061580;28;20085;-67
2024/02/10 07:20:20;;;;;;;8.07;3.35;;;13.20;99.90;;;;;;5060354;28;20467;-69
2024/02/10 07:22:55;;;;;;;31.83;19.38;;;13.10;99.90;;;;;;5063836;28;20089;-68
2024/02/10 07:25:25;;;;;;;31.88;19.55;;;13.10;99.90;;;;;;5060912;28;20078;-70
2024/02/10 07:27:52;;;;;;;35.25;19.15;;;13.10;99.90;;;;;;5060550;28;20074;-69
2024/02/10 07:30:20;;;;;;;30.80;19.00;;;13.10;99.90;;;;;;5063564;28;20119;-69
2024/02/10 07:32:48;;;;;;;26.75;18.52;;;13.00;99.90;;;;;;5060720;28;20081;-69
2024/02/10 07:35:22;;;;;;;6.55;2.60;;;13.00;99.90;;;;;;5065871;28;20101;-68
2024/02/10 07:37:49;;;;;;;7.07;3.10;;;12.90;99.90;;;;;;5061879;28;20497;-65
2024/02/10 07:40:15;;;;;;;27.10;19.15;;;12.80;99.90;;;;;;5057459;28;20077;-66
2024/02/10 07:42:42;;;;;;;13.15;7.03;;;12.80;99.90;;;;;;5060451;28;20074;-70
2024/02/10 07:45:09;;;;;;;8.25;2.70;;;12.80;99.90;;;;;;5059766;28;20096;-68
2024/02/10 07:47:35;;;;;;;7.07;2.42;;;12.80;99.90;;;;;;5059308;28;20077;-66
2024/02/10 07:50:03;;;;;;;6.82;4.22;;;12.70;99.90;;;;;;5063526;28;20113;-68
2024/02/10 07:52:31;;;;;;;6.28;3.97;;;12.70;99.90;;;;;;5062254;28;20074;-68
2024/02/10 07:54:57;;;;;;;12.35;4.28;;;12.70;99.90;;;;;;5061992;28;20576;-69
2024/02/10 07:57:25;;;;;;;9.07;3.58;;;12.70;99.90;;;;;;5060710;28;20073;-65
2024/02/10 07:59:55;;;;;;;6.55;3.78;;;12.70;99.90;;;;;;5062215;28;20080;-68
2024/02/10 08:02:25;;;;;;;5.85;2.60;;;12.70;99.90;;;;;;5059427;28;20108;-68
2024/02/10 08:04:54;;;;;;;5.18;2.85;;;12.70;99.90;;;;;;5062673;28;20081;-63
2024/02/10 08:07:21;;;;;;;2.72;1.75;;;12.70;99.90;;;;;;5060596;28;20117;-68
2024/02/10 08:09:49;;;;;;;4.40;1.85;;;12.70;99.90;;;;;;5059943;28;20096;-65
2024/02/10 08:12:22;;;;;;;6.07;2.33;;;12.70;99.90;;;;;;5060543;28;20084;-69
2024/02/10 08:14:53;;;;;;;5.35;2.42;;;12.70;99.90;;;;;;5061932;28;20116;-69
2024/02/10 08:17:21;;;;;;;5.75;2.53;;;12.70;99.90;;;;;;5059073;28;20081;-69
2024/02/10 08:19:51;;;;;;;5.13;1.95;;;12.70;99.90;;;;;;5055214;28;20168;-70
2024/02/10 08:22:21;;;;;;;6.28;2.00;;;12.70;99.90;;;;;;5063869;28;20537;-69
2024/02/10 08:24:49;;;;;;;3.17;1.98;;;12.70;99.90;;;;;;5060710;28;20111;-67
2024/02/10 08:27:17;;;;;;;3.08;1.73;;;12.70;99.90;;;;;;5062595;28;20074;-71
2024/02/10 08:29:44;;;;;;;3.88;2.00;;;12.70;99.90;;;;;;5062656;28;20084;-64
2024/02/10 08:32:11;;;;;;;6.70;2.50;;;12.70;99.90;;;;;;5064669;28;20069;-67
2024/02/10 08:34:38;;;;;;;4.60;1.85;;;12.70;99.90;;;;;;5063459;28;20103;-69
2024/02/10 08:37:05;;;;;;;4.35;2.05;;;12.70;99.90;;;;;;5060543;28;20536;-70
2024/02/10 08:39:31;;;;;;;4.20;1.90;;;12.60;99.90;;;;;;5061796;28;20077;-70
2024/02/10 08:42:01;;;;;;;6.20;1.88;;;12.70;99.90;;;;;;5059855;28;20155;-68
2024/02/10 08:44:28;;;;;;;3.30;1.98;;;12.70;99.80;;;;;;5061704;28;20461;-67
2024/02/10 08:46:55;;;;;;;17.08;2.22;;;12.70;99.50;;;;;;5062646;28;20108;-69
2024/02/10 08:49:21;;;;;;;4.65;2.00;;;12.70;99.50;;;;;;5059739;28;20081;-65
2024/02/10 08:51:49;;;;;;;6.93;1.80;;;12.80;99.50;;;;;;5061024;28;20124;-70
2024/02/10 08:54:16;;;;;;;5.88;1.95;;;12.80;99.60;;;;;;5062218;28;20108;-69
2024/02/10 08:56:43;;;;;;;6.82;2.80;;;12.80;99.50;;;;;;5061284;28;20077;-69
2024/02/10 08:59:12;;;;;;;8.68;3.00;;;12.80;99.60;;;;;;5061662;28;20077;-69
2024/02/10 09:01:42;;;;;;;11.63;3.15;;;12.80;99.80;;;;;;5062441;28;21496;-69
2024/02/10 09:04:09;;;;;;;8.80;3.30;;;12.70;99.80;;;;;;5062095;28;20084;-68
2024/02/10 09:06:36;;;;;;;6.97;3.40;;;12.70;99.80;;;;;;5061540;28;20080;-68
2024/02/10 09:09:04;;;;;;;12.43;3.67;;;12.70;99.80;;;;;;5062776;28;20107;-68
2024/02/10 09:11:39;;;;;;;5.75;3.10;;;12.60;99.90;;;;;;5061651;28;20549;-69
2024/02/10 09:14:07;;;;;;;6.28;2.88;;;12.60;99.90;;;;;;5063550;28;20120;-63
2024/02/10 09:16:34;;;;;;;8.73;2.70;;;12.50;99.90;;;;;;5062037;28;20537;-68
2024/02/10 09:19:00;;;;;;;10.30;2.70;;;12.50;99.90;;;;;;5057843;28;20433;-69
2024/02/10 09:21:27;;;;;;;7.07;2.88;;;12.50;99.90;;;;;;5059658;28;20081;-68
2024/02/10 09:23:53;;;;;;;6.63;5.32;;;12.40;99.90;;;;;;5060158;28;20080;-69
2024/02/10 09:26:20;;;;;;;9.63;7.30;;;12.40;99.90;;;;;;5062204;28;20077;-70
2024/02/10 09:28:46;;;;;;;6.00;2.63;;;12.40;99.90;;;;;;5061094;28;20069;-68
2024/02/10 09:31:13;;;;;;;6.85;3.10;;;12.40;99.90;;;;;;5059943;28;20077;-64
2024/02/10 09:33:42;;;;;;;8.40;3.38;;;12.40;99.90;;;;;;5061572;28;20088;-69
2024/02/10 09:36:11;;;;;;;7.65;3.28;;;12.30;99.90;;;;;;5057088;28;20081;-68
2024/02/10 09:38:41;;;;;;;7.85;3.67;;;12.30;99.90;;;;;;5060388;28;20159;-65
2024/02/10 09:41:12;;;;;;;7.60;2.78;;;12.30;99.90;;;;;;5057669;28;20085;-68
2024/02/10 09:43:42;;;;;;;7.82;3.22;;;12.30;99.90;;;;;;5059626;28;20085;-68
2024/02/10 09:46:10;;;;;;;8.98;2.90;;;12.30;99.90;;;;;;5058293;28;20081;-67
2024/02/10 09:48:47;;;;;;;7.18;2.65;;;12.20;99.90;;;;;;5059752;28;20107;-67
2024/02/10 09:51:14;;;;;;;6.30;2.67;;;12.20;99.90;;;;;;5058502;28;20676;-67
2024/02/10 09:53:41;;;;;;;4.85;2.40;;;12.20;99.90;;;;;;5059363;28;20186;-69
2024/02/10 09:56:15;;;;;;;5.80;2.47;;;12.20;99.90;;;;;;5058524;28;20073;-66
2024/02/10 09:58:53;;;;;;;6.70;2.38;;;12.20;99.90;;;;;;5056828;28;20081;-69
2024/02/10 10:01:20;;;;;;;5.32;2.00;;;12.20;99.90;;;;;;5063333;28;20549;-68
2024/02/10 10:03:46;;;;;;;10.30;1.88;;;12.10;99.90;;;;;;5057834;28;20070;-70
2024/02/10 10:06:14;;;;;;;4.32;2.20;;;12.10;99.90;;;;;;5059012;28;20081;-69
2024/02/10 10:08:42;;;;;;;5.30;1.95;;;12.10;99.90;;;;;;5059793;28;20166;-69
2024/02/10 10:11:09;;;;;;;8.35;2.30;;;12.10;99.90;;;;;;5057921;28;20069;-68
2024/02/10 10:13:40;;;;;;;5.97;2.05;;;12.00;99.90;;;;;;5060165;28;20266;-63
2024/02/10 10:16:10;;;;;;;8.93;2.20;;;11.90;99.90;;;;;;5058053;28;20694;-62
2024/02/10 10:18:37;;;;;;;7.22;2.67;;;11.90;99.90;;;;;;5058852;28;20099;-65
2024/02/10 10:21:04;;;;;;;8.68;3.05;;;11.90;99.90;;;;;;5058016;28;20698;-68
2024/02/10 10:23:32;;;;;;;8.40;3.25;;;11.90;99.90;;;;;;5056814;28;20108;-69
2024/02/10 10:25:59;;;;;;;5.38;3.53;;;11.90;99.90;;;;;;5060215;28;20074;-70
2024/02/10 10:28:26;;;;;;;8.23;3.75;;;11.80;99.90;;;;;;5057523;28;20084;-70
2024/02/10 10:30:56;;;;;;;8.23;3.42;;;11.80;99.90;;;;;;5062617;28;20077;-69
2024/02/10 10:33:25;;;;;;;7.85;3.78;;;11.80;99.90;;;;;;5062490;28;20076;-69
2024/02/10 10:35:54;;;;;;;7.32;3.83;;;11.80;99.90;;;;;;5060931;28;20101;-69
2024/02/10 10:38:22;;;;;;;11.10;3.78;;;11.80;99.90;;;;;;5062332;28;20087;-69
2024/02/10 10:40:52;;;;;;;7.28;3.42;;;11.80;99.90;;;;;;5064514;28;20172;-68
2024/02/10 10:43:25;;;;;;;7.03;3.00;;;11.80;99.90;;;;;;5062395;28;20156;-68
2024/02/10 10:45:52;;;;;;;7.65;3.08;;;11.80;99.90;;;;;;5062421;28;20092;-66
2024/02/10 10:48:18;;;;;;;8.20;2.67;;;11.90;99.90;;;;;;5061291;28;20078;-68
2024/02/10 10:50:45;;;;;;;6.35;2.33;;;11.90;99.90;;;;;;5060923;28;20122;-65
2024/02/10 10:53:11;;;;;;;4.53;2.20;;;11.90;99.90;;;;;;5062151;28;20100;-69
2024/02/10 10:55:46;;;;;;;5.07;2.50;;;11.90;99.90;;;;;;5065209;28;20115;-69
2024/02/10 10:58:21;;;;;;;5.07;2.33;;;11.90;99.90;;;;;;5062153;28;20080;-68
2024/02/10 11:00:50;;;;;;;5.88;1.92;;;12.00;99.90;;;;;;5063469;28;20084;-68
2024/02/10 11:03:18;;;;;;;4.20;1.70;;;12.00;99.90;;;;;;5060413;28;20533;-70
2024/02/10 11:05:49;;;;;;;3.55;1.70;;;12.00;99.90;;;;;;5060621;28;20108;-68
2024/02/10 11:08:26;;;;;;;3.58;1.60;;;12.10;99.90;;;;;;5060930;28;20080;-70
2024/02/10 11:11:02;;;;;;;2.97;1.40;;;12.10;99.90;;;;;;5062506;28;20077;-68
2024/02/10 11:13:31;;;;;;;7.32;1.45;;;12.20;99.70;;;;;;5061879;28;20072;-68
2024/02/10 11:16:03;;;;;;;8.65;1.73;;;12.20;99.50;;;;;;5062820;28;20096;-70
2024/02/10 11:18:33;;;;;;;2.83;1.30;;;12.30;99.40;;;;;;5063912;28;20540;-69
2024/02/10 11:21:26;;;;;;;4.50;1.20;;;12.30;99.30;;;;;;5061846;28;20077;-70
2024/02/10 11:24:07;;;;;;;3.08;1.23;;;12.30;99.10;;;;;;5060504;28;21153;-66
2024/02/10 11:26:38;;;;;;;3.15;1.05;;;12.40;99.10;;;;;;5061203;28;20108;-68
2024/02/10 11:29:07;;;;;;;5.85;1.50;;;12.40;99.00;;;;;;5060627;28;20093;-70
2024/02/10 11:31:41;;;;;;;5.32;1.42;;;12.40;99.00;;;;;;5060434;28;20457;-69
2024/02/10 11:34:19;;;;;;;2.05;1.05;;;12.40;99.00;;;;;;5062749;28;20114;-70
2024/02/10 11:36:56;;;;;;;3.50;1.13;;;12.40;99.00;;;;;;5062074;28;20653;-71
2024/02/10 11:39:24;;;;;;;1.92;1.30;;;12.40;99.10;;;;;;5061928;28;20123;-71
2024/02/10 11:41:58;;;;;;;4.15;1.40;;;12.40;99.10;;;;;;5061159;28;20077;-69
2024/02/10 11:44:26;;;;;;;3.22;1.27;;;12.50;99.20;;;;;;5059279;28;20572;-71
2024/02/10 11:46:52;;;;;;;6.28;1.40;;;12.40;99.30;;;;;;5063084;28;20089;-71
2024/02/10 11:49:21;;;;;;;3.50;1.60;;;12.40;99.40;;;;;;5062637;28;20099;-69
2024/02/10 11:51:56;;;;;;;3.35;1.48;;;12.40;99.40;;;;;;5063629;28;20575;-69
2024/02/10 11:54:26;;;;;;;4.68;1.30;;;12.40;99.40;;;;;;5061235;28;20163;-70
2024/02/10 11:56:56;;;;;;;4.20;1.50;;;12.50;99.30;;;;;;5062312;28;20092;-70
2024/02/10 11:59:24;;;;;;;5.18;1.55;;;12.50;99.30;;;;;;5062014;28;20122;-69
2024/02/10 12:01:51;;;;;;;5.47;1.50;;;12.50;99.20;;;;;;5060417;28;20513;-69
2024/02/10 12:04:18;;;;;;;6.88;1.75;;;12.50;99.20;;;;;;5063012;28;20077;-69
2024/02/10 12:06:51;;;;;;;3.50;1.40;;;12.50;99.20;;;;;;5060951;28;20081;-72
2024/02/10 12:09:18;;;;;;;3.08;1.60;;;12.50;99.20;;;;;;5047671;28;20551;-66
2024/02/10 12:11:46;;;;;;;2.33;1.38;;;12.50;99.00;;;;;;5060408;28;20104;-68
2024/02/10 12:14:13;;;;;;;2.83;1.35;;;12.60;99.00;;;;;;5063833;28;20111;-71
2024/02/10 12:16:44;;;;;;;5.25;1.20;;;12.60;98.80;;;;;;5064200;28;20100;-69
2024/02/10 12:19:11;;;;;;;3.55;1.17;;;12.60;98.70;;;;;;5062747;28;20558;-69
2024/02/10 12:21:40;;;;;;;2.47;0.90;;;12.70;98.40;;;;;;5062386;28;20065;-69
2024/02/10 12:24:13;;;;;;;1.95;0.90;;;12.70;98.50;;;;;;5063801;28;20102;-67
2024/02/10 12:26:39;;;;;;;2.13;0.95;;;12.70;98.20;;;;;;5062526;28;20536;-68
2024/02/10 12:29:09;;;;;;;3.58;0.90;;;12.70;98.20;;;;;;5061921;28;20105;-69
2024/02/10 12:31:38;;;;;;;3.20;1.05;;;12.70;98.30;;;;;;5060081;28;20077;-70
2024/02/10 12:34:05;;;;;;;4.82;1.00;;;12.70;98.10;;;;;;5061674;28;20203;-67
2024/02/10 12:36:33;;;;;;;3.85;1.33;;;12.80;98.10;;;;;;5059827;28;20078;-71
2024/02/10 12:39:00;;;;;;;5.07;1.00;;;12.70;98.10;;;;;;5060145;28;20459;-70
2024/02/10 12:41:27;;;;;;;2.40;1.13;;;12.80;98.30;;;;;;5059746;28;20153;-70
2024/02/10 12:43:54;;;;;;;2.38;1.05;;;12.80;98.30;;;;;;5060831;28;20092;-69
2024/02/10 12:46:20;;;;;;;8.60;1.35;;;12.80;98.30;;;;;;5061110;28;20176;-71
2024/02/10 12:48:50;;;;;;;2.92;1.23;;;12.70;98.50;;;;;;5060179;28;20080;-67
2024/02/10 12:51:17;;;;;;;3.80;1.55;;;12.70;98.60;;;;;;5059561;28;20137;-69
2024/02/10 12:53:44;;;;;;;3.90;1.60;;;12.70;98.60;;;;;;5060974;28;20095;-68